Terminal Aerodrome Forecast
Issued by NWS

Home | Current Version | Previous Version | Text Only | Print | Product List | Glossary On
Versions: 1 2 3 4 5 6 7 8 9 10 11 12 13 14 15
000
FTUS43 KOAX 170520
TAFBFF
TAF
KBFF 170520Z 1706/1806 06012KT P6SM OVC018
     FM170800 05008KT P6SM SCT007 OVC012
     FM171000 12007KT 3SM -FZDZ BR OVC008
     FM171500 24008KT P6SM SCT008 OVC020
     FM171800 24010KT P6SM SCT020 BKN100=

USA.gov is the U.S. government's official web portal to all federal, state and local government web resources and services.